createdAt,value
2019-03-21T00:02:11.714Z,99593.33
2019-03-21T00:04:45.463Z,99599.77
2019-03-21T00:07:18.204Z,99594.55
2019-03-21T00:10:24.383Z,99593.58
2019-03-21T00:12:57.477Z,99595.59
2019-03-21T00:15:37.207Z,99590.92
2019-03-21T00:18:13.736Z,99591.75
2019-03-21T00:20:46.542Z,99596.08
2019-03-21T00:23:19.266Z,99594.42
2019-03-21T00:25:51.990Z,99597.08
2019-03-21T00:28:25.068Z,99595.97
2019-03-21T00:30:58.125Z,99588.09
2019-03-21T00:33:31.173Z,99592.98
2019-03-21T00:36:04.333Z,99599.45
2019-03-21T00:38:37.075Z,99606.02
2019-03-21T00:41:10.180Z,99595.58
2019-03-21T00:43:43.226Z,99599.38
2019-03-21T00:46:16.436Z,99600.09
2019-03-21T00:48:49.173Z,99602.30
2019-03-21T00:51:22.339Z,99599.94
2019-03-21T00:53:54.993Z,99608.95
2019-03-21T00:56:28.347Z,99600.86
2019-03-21T00:59:01.981Z,99609.33
2019-03-21T01:01:34.733Z,99603.45
2019-03-21T01:04:07.805Z,99608.30
2019-03-21T01:06:40.965Z,99604.52
2019-03-21T01:09:14.572Z,99598.66
2019-03-21T01:11:47.629Z,99595.05
2019-03-21T01:14:29.403Z,99595.95
2019-03-21T01:16:54.823Z,99594.89
2019-03-21T01:19:27.573Z,99597.59
2019-03-21T01:22:00.674Z,99600.30
2019-03-21T01:24:33.424Z,99596.69
2019-03-21T01:27:06.482Z,99595.23
2019-03-21T01:29:41.037Z,99598.17
2019-03-21T01:32:13.776Z,99592.37
2019-03-21T01:34:46.821Z,99594.48
2019-03-21T01:37:20.203Z,99595.64
2019-03-21T01:39:53.249Z,99598.91
2019-03-21T01:42:25.993Z,99591.69
2019-03-21T01:44:59.350Z,99589.45
2019-03-21T01:47:32.583Z,99581.84
2019-03-21T01:50:06.953Z,99583.39
2019-03-21T01:52:40.014Z,99574.93
2019-03-21T01:55:13.208Z,99570.55
2019-03-21T01:57:46.309Z,99569.38
2019-03-21T02:00:27.229Z,99568.45
2019-03-21T02:03:00.828Z,99563.17
2019-03-21T02:05:33.568Z,99567.12
2019-03-21T02:08:06.745Z,99562.58
2019-03-21T02:10:40.516Z,99561.00
2019-03-21T02:13:14.134Z,99561.58
2019-03-21T02:15:46.877Z,99554.45
2019-03-21T02:18:19.652Z,99553.47
2019-03-21T02:20:52.799Z,99549.12
2019-03-21T02:23:25.802Z,99551.63
2019-03-21T02:25:59.265Z,99556.16
2019-03-21T02:28:32.341Z,99559.27
2019-03-21T02:31:05.085Z,99554.39
2019-03-21T02:33:38.347Z,99559.02
2019-03-21T02:36:11.270Z,99556.66
2019-03-21T02:38:44.481Z,99556.93
2019-03-21T02:41:17.347Z,99558.63
2019-03-21T02:43:50.094Z,99558.67
2019-03-21T02:46:23.149Z,99558.66
2019-03-21T02:48:55.920Z,99557.55
2019-03-21T02:51:28.975Z,99555.66
2019-03-21T02:54:02.160Z,99558.70
2019-03-21T02:56:35.313Z,99556.32
2019-03-21T02:59:08.238Z,99548.33
2019-03-21T03:01:41.446Z,99548.79
2019-03-21T03:04:14.202Z,99545.92
2019-03-21T03:06:47.266Z,99539.39
2019-03-21T03:09:20.431Z,99543.55
2019-03-21T03:11:53.166Z,99544.02
2019-03-21T03:14:26.537Z,99545.77
2019-03-21T03:16:59.878Z,99544.77
2019-03-21T03:19:32.625Z,99545.20
2019-03-21T03:22:05.374Z,99538.76
2019-03-21T03:24:39.164Z,99531.53
2019-03-21T03:27:12.246Z,99538.05
2019-03-21T03:29:45.003Z,99544.50
2019-03-21T03:32:18.061Z,99549.66
2019-03-21T03:34:51.126Z,99556.28
2019-03-21T03:37:23.853Z,99572.23
2019-03-21T03:39:56.588Z,99577.75
2019-03-21T03:42:29.336Z,99583.55
2019-03-21T03:45:02.991Z,99591.77
2019-03-21T03:47:35.718Z,99585.03
2019-03-21T03:50:10.077Z,99576.75
2019-03-21T03:52:42.813Z,99580.48
2019-03-21T03:55:17.354Z,99582.02
2019-03-21T03:57:50.997Z,99580.36
2019-03-21T04:00:23.812Z,99577.94
2019-03-21T04:02:58.305Z,99582.19
2019-03-21T04:05:31.247Z,99588.04
2019-03-21T04:08:04.001Z,99593.25
2019-03-21T04:10:40.061Z,99585.14
2019-03-21T04:13:13.925Z,99588.03
2019-03-21T04:15:53.420Z,99593.30
2019-03-21T04:18:21.684Z,99583.33
2019-03-21T04:20:54.996Z,99581.19
2019-03-21T04:23:28.200Z,99580.67
2019-03-21T04:26:15.079Z,99581.70
2019-03-21T04:28:48.824Z,99574.13
2019-03-21T04:31:21.571Z,99582.72
2019-03-21T04:33:57.377Z,99578.03
2019-03-21T04:36:30.133Z,99579.16
2019-03-21T04:39:04.679Z,99583.97
2019-03-21T04:41:37.841Z,99583.86
2019-03-21T04:44:10.573Z,99586.45
2019-03-21T04:46:43.327Z,99586.61
2019-03-21T04:49:16.532Z,99582.36
2019-03-21T04:51:49.286Z,99585.12
2019-03-21T04:54:22.032Z,99580.99
2019-03-21T04:56:55.091Z,99578.91
2019-03-21T04:59:27.829Z,99583.45
2019-03-21T05:02:00.580Z,99586.49
2019-03-21T05:04:33.625Z,99594.86
2019-03-21T05:07:06.715Z,99595.96
2019-03-21T05:09:39.460Z,99587.66
2019-03-21T05:12:13.004Z,99584.23
2019-03-21T05:14:46.699Z,99591.23
2019-03-21T05:17:20.068Z,99593.13
2019-03-21T05:19:52.807Z,99592.64
2019-03-21T05:22:25.556Z,99590.75
2019-03-21T05:24:58.771Z,99594.20
2019-03-21T05:27:31.848Z,99593.25
2019-03-21T05:30:05.202Z,99597.78
2019-03-21T05:32:38.388Z,99597.26
2019-03-21T05:35:11.893Z,99598.51
2019-03-21T05:37:44.948Z,99597.91
2019-03-21T05:40:18.626Z,99601.80
2019-03-21T05:43:08.432Z,99602.28
2019-03-21T05:45:41.186Z,99606.82
2019-03-21T05:48:14.577Z,99604.30
2019-03-21T05:50:48.209Z,99599.00
2019-03-21T05:53:21.578Z,99604.29
2019-03-21T05:55:55.045Z,99604.98
2019-03-21T05:58:28.119Z,99612.14
2019-03-21T06:01:01.692Z,99609.02
2019-03-21T06:03:46.574Z,99608.18
2019-03-21T06:06:28.709Z,99609.08
2019-03-21T06:09:01.762Z,99605.66
2019-03-21T06:11:34.509Z,99605.69
2019-03-21T06:14:07.675Z,99607.80
2019-03-21T06:16:40.502Z,99605.41
2019-03-21T06:19:59.271Z,99604.36
2019-03-21T06:23:31.416Z,99598.05
2019-03-21T06:26:36.785Z,99599.16
2019-03-21T06:29:09.530Z,99596.56
2019-03-21T06:31:43.061Z,99603.96
2019-03-21T06:34:16.597Z,99602.63
2019-03-21T06:36:50.158Z,99608.81
2019-03-21T06:39:24.720Z,99605.41
2019-03-21T06:41:57.784Z,99600.13
2019-03-21T06:44:30.530Z,99602.38
2019-03-21T06:47:03.951Z,99603.81
2019-03-21T06:49:36.703Z,99609.28
2019-03-21T06:52:09.868Z,99610.45
2019-03-21T06:54:43.666Z,99609.72
2019-03-21T06:57:16.736Z,99605.37
2019-03-21T06:59:50.195Z,99611.00
2019-03-21T07:02:22.926Z,99604.87
2019-03-21T07:04:57.693Z,99610.30
2019-03-21T07:07:31.208Z,99607.51
2019-03-21T07:10:05.191Z,99603.25
2019-03-21T07:12:38.246Z,99604.09
2019-03-21T07:15:12.339Z,99600.88
2019-03-21T07:17:45.090Z,99603.45
2019-03-21T07:20:18.229Z,99596.66
2019-03-21T07:22:51.048Z,99598.30
2019-03-21T07:25:24.110Z,99599.79
2019-03-21T07:27:56.841Z,99598.68
2019-03-21T07:30:29.887Z,99599.13
2019-03-21T07:33:03.101Z,99598.34
2019-03-21T07:35:36.167Z,99605.02
2019-03-21T07:38:08.925Z,99601.77
2019-03-21T07:40:41.965Z,99605.47
2019-03-21T07:43:15.110Z,99603.66
2019-03-21T07:45:47.922Z,99599.62
2019-03-21T07:48:21.132Z,99598.95
2019-03-21T07:50:54.350Z,99598.41
2019-03-21T07:53:28.317Z,99596.06
2019-03-21T07:56:02.222Z,99588.59
2019-03-21T07:58:35.290Z,99585.64
2019-03-21T08:01:08.454Z,99585.03
2019-03-21T08:03:41.615Z,99581.34
2019-03-21T08:06:14.823Z,99583.05
2019-03-21T08:08:48.046Z,99583.44
2019-03-21T08:11:21.105Z,99587.25
2019-03-21T08:13:55.048Z,99582.39
2019-03-21T08:16:28.743Z,99575.91
2019-03-21T08:19:02.661Z,99577.87
2019-03-21T08:21:35.397Z,99575.98
2019-03-21T08:24:08.248Z,99580.13
2019-03-21T08:26:41.005Z,99582.09
2019-03-21T08:29:13.745Z,99576.75
2019-03-21T08:31:46.512Z,99573.16
2019-03-21T08:34:19.568Z,99576.41
2019-03-21T08:36:53.158Z,99574.88
2019-03-21T08:39:25.989Z,99573.23
2019-03-21T08:41:59.016Z,99564.69
2019-03-21T08:44:31.913Z,99564.20
2019-03-21T08:47:05.476Z,99567.25
2019-03-21T08:49:38.371Z,99555.50
2019-03-21T08:52:11.273Z,99560.42
2019-03-21T08:54:44.597Z,99557.00
2019-03-21T08:57:19.158Z,99558.14
2019-03-21T08:59:52.694Z,99556.67
2019-03-21T09:02:25.907Z,99558.95
2019-03-21T09:04:59.826Z,99557.52
2019-03-21T09:07:33.649Z,99553.37
2019-03-21T09:10:08.124Z,99552.02
2019-03-21T09:12:42.670Z,99554.30
2019-03-21T09:15:15.701Z,99549.40
2019-03-21T09:17:48.709Z,99545.80
2019-03-21T09:20:21.884Z,99549.37
2019-03-21T09:22:55.706Z,99546.34
2019-03-21T09:25:28.528Z,99542.95
2019-03-21T09:28:02.955Z,99536.23
2019-03-21T09:30:36.977Z,99533.56
2019-03-21T09:33:10.183Z,99530.75
2019-03-21T09:35:43.877Z,99524.54
2019-03-21T09:38:16.850Z,99522.55
2019-03-21T09:40:50.161Z,99517.59
2019-03-21T09:43:23.527Z,99522.86
2019-03-21T09:45:56.658Z,99520.56
2019-03-21T09:48:29.975Z,99515.17
2019-03-21T09:51:02.878Z,99509.27
2019-03-21T09:53:35.767Z,99518.44
2019-03-21T09:56:09.473Z,99516.59
2019-03-21T09:58:42.789Z,99510.52
2019-03-21T10:01:16.473Z,99512.27
2019-03-21T10:03:50.021Z,99521.48
2019-03-21T10:06:23.415Z,99508.92
2019-03-21T10:08:56.855Z,99507.97
2019-03-21T10:11:31.002Z,99514.06
2019-03-21T10:14:04.574Z,99512.57
2019-03-21T10:16:38.694Z,99510.76
2019-03-21T10:19:11.587Z,99506.14
2019-03-21T10:21:44.554Z,99500.89
2019-03-21T10:24:17.921Z,99496.48
2019-03-21T10:26:50.826Z,99490.55
2019-03-21T10:29:23.721Z,99491.27
2019-03-21T10:31:56.865Z,99491.67
2019-03-21T10:34:29.674Z,99485.44
2019-03-21T10:37:03.431Z,99486.09
2019-03-21T10:39:37.138Z,99484.21
2019-03-21T10:42:10.686Z,99478.63
2019-03-21T10:44:43.873Z,99474.39
2019-03-21T10:47:17.125Z,99470.50
2019-03-21T10:49:50.939Z,99472.27
2019-03-21T10:52:24.831Z,99467.69
2019-03-21T10:54:57.720Z,99472.80
2019-03-21T10:57:30.632Z,99471.40
2019-03-21T11:00:03.556Z,99470.42
2019-03-21T11:02:36.448Z,99463.28
2019-03-21T11:05:09.712Z,99455.52
2019-03-21T11:07:42.552Z,99450.34
2019-03-21T11:10:15.791Z,99446.13
2019-03-21T11:12:48.695Z,99435.34
2019-03-21T11:15:23.181Z,99436.94
2019-03-21T11:17:57.469Z,99435.13
2019-03-21T11:20:48.866Z,99439.52
2019-03-21T11:23:21.688Z,99427.14
2019-03-21T11:25:54.906Z,99428.68
2019-03-21T11:28:28.053Z,99419.34
2019-03-21T11:31:01.220Z,99413.97
2019-03-21T11:33:34.132Z,99408.29
2019-03-21T11:36:07.388Z,99414.85
2019-03-21T11:38:41.205Z,99407.20
2019-03-21T11:41:15.109Z,99406.88
2019-03-21T11:43:48.805Z,99393.02
2019-03-21T11:46:21.884Z,99392.13
2019-03-21T11:48:54.823Z,99387.12
2019-03-21T11:51:27.717Z,99384.78
2019-03-21T11:54:01.079Z,99379.22
2019-03-21T11:56:34.194Z,99372.02
2019-03-21T11:59:07.190Z,99375.23
2019-03-21T12:01:40.846Z,99372.08
2019-03-21T12:04:14.636Z,99365.30
2019-03-21T12:06:47.892Z,99365.09
2019-03-21T12:09:20.798Z,99360.09
2019-03-21T12:11:53.589Z,99358.83
2019-03-21T12:14:27.278Z,99353.29
2019-03-21T12:17:00.674Z,99350.36
2019-03-21T12:19:33.582Z,99352.99
2019-03-21T12:22:06.415Z,99348.39
2019-03-21T12:24:40.092Z,99346.56
2019-03-21T12:27:13.286Z,99339.53
2019-03-21T12:29:46.478Z,99336.47
2019-03-21T12:32:19.351Z,99336.96
2019-03-21T12:34:53.136Z,99328.59
2019-03-21T12:37:26.803Z,99325.60
2019-03-21T12:40:01.456Z,99327.41
2019-03-21T12:42:34.321Z,99320.61
2019-03-21T12:45:09.590Z,99315.57
2019-03-21T12:47:42.461Z,99314.44
2019-03-21T12:50:15.901Z,99307.41
2019-03-21T12:52:50.331Z,99307.95
2019-03-21T12:55:23.681Z,99302.67
2019-03-21T12:57:58.090Z,99293.98
2019-03-21T13:00:45.414Z,99293.63
2019-03-21T13:03:18.272Z,99292.55
2019-03-21T13:05:51.176Z,99287.19
2019-03-21T13:08:33.334Z,99282.66
2019-03-21T13:11:01.170Z,99281.25
2019-03-21T13:13:34.353Z,99282.00
2019-03-21T13:16:08.011Z,99279.07
2019-03-21T13:18:40.881Z,99270.48
2019-03-21T13:21:14.110Z,99272.38
2019-03-21T13:23:47.434Z,99267.88
2019-03-21T13:26:20.582Z,99264.45
2019-03-21T13:28:53.864Z,99263.84
2019-03-21T13:31:28.047Z,99262.20
2019-03-21T13:34:00.836Z,99252.34
2019-03-21T13:36:33.733Z,99250.81
2019-03-21T13:39:08.861Z,99249.79
2019-03-21T13:41:41.685Z,99243.70
2019-03-21T13:44:15.320Z,99242.36
2019-03-21T13:46:48.152Z,99235.38
2019-03-21T13:49:21.323Z,99232.14
2019-03-21T13:51:54.544Z,99227.20
2019-03-21T13:54:27.326Z,99224.49
2019-03-21T13:57:00.463Z,99228.22
2019-03-21T13:59:33.244Z,99215.27
2019-03-21T14:02:06.729Z,99211.03
2019-03-21T14:04:39.899Z,99213.36
2019-03-21T14:07:13.221Z,99213.20
2019-03-21T14:09:46.867Z,99201.56
2019-03-21T14:12:20.077Z,99202.83
2019-03-21T14:14:53.833Z,99197.26
2019-03-21T14:17:27.069Z,99193.87
2019-03-21T14:20:01.037Z,99190.72
2019-03-21T14:22:34.397Z,99188.61
2019-03-21T14:25:07.803Z,99190.35
2019-03-21T14:27:40.702Z,99190.69
2019-03-21T14:30:15.643Z,99186.28
2019-03-21T14:32:48.561Z,99174.62
2019-03-21T14:35:22.324Z,99173.63
2019-03-21T14:37:55.155Z,99170.44
2019-03-21T14:40:28.255Z,99176.08
2019-03-21T14:43:02.014Z,99173.17
2019-03-21T14:45:34.877Z,99170.41
2019-03-21T14:48:12.587Z,99171.88
2019-03-21T14:50:46.000Z,99169.91
2019-03-21T14:53:28.212Z,99164.16
2019-03-21T14:55:53.763Z,99167.23
2019-03-21T14:58:27.373Z,99170.22
2019-03-21T15:01:01.436Z,99167.06
2019-03-21T15:03:34.333Z,99165.03
2019-03-21T15:06:07.783Z,99164.95
2019-03-21T15:08:41.559Z,99163.48
2019-03-21T15:11:17.159Z,99160.27
2019-03-21T15:13:50.037Z,99161.88
2019-03-21T15:16:23.804Z,99166.38
2019-03-21T15:18:57.024Z,99164.59
2019-03-21T15:21:30.505Z,99166.56
2019-03-21T15:24:04.179Z,99157.75
2019-03-21T15:26:38.047Z,99160.69
2019-03-21T15:29:11.426Z,99157.80
2019-03-21T15:31:44.293Z,99159.03
2019-03-21T15:34:18.125Z,99159.06
2019-03-21T15:36:51.311Z,99154.71
2019-03-21T15:39:24.514Z,99157.94
2019-03-21T15:41:57.479Z,99151.42
2019-03-21T15:44:31.006Z,99150.54
2019-03-21T15:47:03.871Z,99150.59
2019-03-21T15:49:37.162Z,99152.23
2019-03-21T15:52:10.531Z,99145.45
2019-03-21T15:54:43.877Z,99139.78
2019-03-21T15:57:17.453Z,99145.02
2019-03-21T15:59:52.535Z,99143.73
2019-03-21T16:02:26.281Z,99147.55
2019-03-21T16:04:59.186Z,99144.32
2019-03-21T16:07:32.666Z,99149.45
2019-03-21T16:10:06.560Z,99147.03
2019-03-21T16:12:39.421Z,99148.59
2019-03-21T16:15:12.776Z,99145.92
2019-03-21T16:17:46.106Z,99151.69
2019-03-21T16:20:19.004Z,99143.53
2019-03-21T16:22:52.211Z,99146.27
2019-03-21T16:25:25.140Z,99145.95
2019-03-21T16:27:58.593Z,99147.17
2019-03-21T16:30:31.814Z,99143.19
2019-03-21T16:33:05.625Z,99139.39
2019-03-21T16:35:39.073Z,99143.25
2019-03-21T16:38:12.712Z,99149.29
2019-03-21T16:40:46.624Z,99145.52
2019-03-21T16:43:20.117Z,99142.46
2019-03-21T16:45:54.037Z,99142.66
2019-03-21T16:48:27.196Z,99145.14
2019-03-21T16:51:02.820Z,99139.20
2019-03-21T16:53:34.565Z,99141.67
2019-03-21T16:56:07.749Z,99141.56
2019-03-21T16:58:41.388Z,99143.63
2019-03-21T17:01:14.987Z,99143.04
2019-03-21T17:03:48.607Z,99139.95
2019-03-21T17:06:21.491Z,99140.50
2019-03-21T17:08:54.805Z,99141.47
2019-03-21T17:11:27.708Z,99151.61
2019-03-21T17:14:00.589Z,99149.53
2019-03-21T17:16:34.134Z,99153.52
2019-03-21T17:19:08.436Z,99156.20
2019-03-21T17:21:41.299Z,99162.09
2019-03-21T17:24:15.518Z,99167.30
2019-03-21T17:26:48.878Z,99166.33
2019-03-21T17:29:22.161Z,99164.30
2019-03-21T17:31:55.065Z,99167.08
2019-03-21T17:34:29.383Z,99174.45
2019-03-21T17:37:02.596Z,99172.31
2019-03-21T17:39:35.472Z,99174.55
2019-03-21T17:42:09.465Z,99178.61
2019-03-21T17:44:42.663Z,99178.09
2019-03-21T17:47:15.671Z,99182.38
2019-03-21T17:49:49.008Z,99187.86
2019-03-21T17:52:22.317Z,99184.63
2019-03-21T17:54:55.897Z,99186.77
2019-03-21T17:57:34.474Z,99194.77
2019-03-21T18:00:04.045Z,99196.38
2019-03-21T18:02:37.581Z,99198.00
2019-03-21T18:05:11.714Z,99198.27
2019-03-21T18:07:44.560Z,99203.09
2019-03-21T18:10:34.453Z,99209.35
2019-03-21T18:13:08.472Z,99206.63
2019-03-21T18:15:42.269Z,99208.62
2019-03-21T18:18:15.421Z,99207.81
2019-03-21T18:20:48.590Z,99209.78
2019-03-21T18:23:23.236Z,99210.84
2019-03-21T18:25:56.377Z,99210.19
2019-03-21T18:28:29.307Z,99211.22
2019-03-21T18:31:02.652Z,99217.06
2019-03-21T18:33:36.593Z,99215.98
2019-03-21T18:36:09.851Z,99220.19
2019-03-21T18:38:43.090Z,99217.37
2019-03-21T18:41:16.257Z,99222.66
2019-03-21T18:43:49.154Z,99221.67
2019-03-21T18:46:23.116Z,99224.94
2019-03-21T18:48:56.936Z,99225.08
2019-03-21T18:51:31.072Z,99223.03
2019-03-21T18:54:05.006Z,99223.67
2019-03-21T18:56:39.662Z,99221.91
2019-03-21T18:59:13.790Z,99227.88
2019-03-21T19:01:58.086Z,99228.94
2019-03-21T19:04:22.640Z,99229.00
2019-03-21T19:06:55.850Z,99232.30
2019-03-21T19:09:29.357Z,99231.65
2019-03-21T19:12:03.153Z,99232.02
2019-03-21T19:14:37.202Z,99234.61
2019-03-21T19:17:10.565Z,99232.10
2019-03-21T19:19:44.186Z,99229.61
2019-03-21T19:22:17.464Z,99233.88
2019-03-21T19:24:50.989Z,99235.93
2019-03-21T19:27:23.695Z,99234.19
2019-03-21T19:29:56.734Z,99236.11
2019-03-21T19:32:30.641Z,99242.14
2019-03-21T19:35:03.687Z,99251.42
2019-03-21T19:37:37.263Z,99255.33
2019-03-21T19:40:11.079Z,99256.31
2019-03-21T19:42:45.197Z,99258.50
2019-03-21T19:45:19.855Z,99264.11
2019-03-21T19:47:53.434Z,99265.54
2019-03-21T19:50:26.587Z,99262.48
2019-03-21T19:52:59.760Z,99264.38
2019-03-21T19:55:32.976Z,99265.06
2019-03-21T19:58:05.785Z,99263.47
2019-03-21T20:00:38.520Z,99267.89
2019-03-21T20:03:11.796Z,99263.59
2019-03-21T20:05:46.038Z,99261.18
2019-03-21T20:08:19.932Z,99267.64
2019-03-21T20:10:53.400Z,99269.91
2019-03-21T20:13:26.415Z,99267.94
2019-03-21T20:16:00.140Z,99263.31
2019-03-21T20:18:34.035Z,99265.33
2019-03-21T20:21:07.293Z,99268.05
2019-03-21T20:23:40.301Z,99266.22
2019-03-21T20:26:13.513Z,99273.57
2019-03-21T20:28:46.209Z,99270.06
2019-03-21T20:31:19.676Z,99277.66
2019-03-21T20:33:52.688Z,99276.98
2019-03-21T20:36:26.687Z,99285.05
2019-03-21T20:39:00.120Z,99281.58
2019-03-21T20:41:33.319Z,99292.16
2019-03-21T20:44:14.611Z,99283.31
2019-03-21T20:46:40.571Z,99276.71
2019-03-21T20:49:13.895Z,99273.46
2019-03-21T20:51:49.121Z,99265.58
2019-03-21T20:54:22.714Z,99267.77
2019-03-21T20:56:55.452Z,99271.67
2019-03-21T20:59:28.560Z,99268.64
2019-03-21T21:02:03.099Z,99279.70
2019-03-21T21:04:36.228Z,99276.09
2019-03-21T21:07:09.750Z,99280.46
2019-03-21T21:09:43.076Z,99276.32
2019-03-21T21:12:17.579Z,99280.47
2019-03-21T21:14:51.357Z,99279.33
2019-03-21T21:17:25.037Z,99277.97
2019-03-21T21:19:59.980Z,99275.45
2019-03-21T21:22:32.714Z,99273.34
2019-03-21T21:25:07.632Z,99275.83
2019-03-21T21:27:49.405Z,99273.17
2019-03-21T21:30:18.034Z,99277.05
2019-03-21T21:32:51.503Z,99273.21
2019-03-21T21:35:25.365Z,99280.67
2019-03-21T21:37:58.112Z,99275.92
2019-03-21T21:40:33.704Z,99281.55
2019-03-21T21:43:06.433Z,99280.83
2019-03-21T21:45:39.454Z,99279.59
2019-03-21T21:48:12.178Z,99276.23
2019-03-21T21:50:45.338Z,99278.72
2019-03-21T21:53:20.090Z,99282.00
2019-03-21T21:55:53.103Z,99277.80
2019-03-21T21:58:25.836Z,99272.62
2019-03-21T22:00:58.636Z,99271.07
2019-03-21T22:03:32.768Z,99277.28
2019-03-21T22:06:06.882Z,99276.50
2019-03-21T22:08:39.910Z,99270.11
2019-03-21T22:11:12.724Z,99268.97
2019-03-21T22:13:46.362Z,99273.79
2019-03-21T22:16:20.195Z,99276.41
2019-03-21T22:18:52.932Z,99277.66
2019-03-21T22:21:25.620Z,99283.79
2019-03-21T22:23:58.826Z,99281.84
2019-03-21T22:26:32.313Z,99284.97
2019-03-21T22:29:05.513Z,99285.14
2019-03-21T22:31:38.222Z,99285.92
2019-03-21T22:34:11.426Z,99291.47
2019-03-21T22:36:49.332Z,99295.03
2019-03-21T22:39:18.868Z,99290.06
2019-03-21T22:41:52.346Z,99295.52
2019-03-21T22:44:25.079Z,99293.09
2019-03-21T22:46:57.770Z,99296.91
2019-03-21T22:49:30.505Z,99293.06
2019-03-21T22:52:03.567Z,99288.85
2019-03-21T22:54:37.089Z,99287.28
2019-03-21T22:57:09.785Z,99285.49
2019-03-21T22:59:42.834Z,99280.45
2019-03-21T23:02:16.714Z,99273.37
2019-03-21T23:04:49.675Z,99271.80
2019-03-21T23:07:22.958Z,99268.49
2019-03-21T23:09:56.791Z,99267.41
2019-03-21T23:12:29.953Z,99267.88
2019-03-21T23:15:03.959Z,99264.43
2019-03-21T23:17:38.531Z,99266.14
2019-03-21T23:20:12.830Z,99266.94
2019-03-21T23:22:45.876Z,99264.84
2019-03-21T23:25:18.955Z,99269.48
2019-03-21T23:27:52.118Z,99264.34
2019-03-21T23:30:25.308Z,99269.08
2019-03-21T23:32:58.583Z,99272.66
2019-03-21T23:35:34.115Z,99271.70
2019-03-21T23:38:06.951Z,99276.87
2019-03-21T23:40:40.783Z,99272.84
2019-03-21T23:43:13.623Z,99280.73
2019-03-21T23:45:47.758Z,99281.02
2019-03-21T23:48:20.599Z,99275.56
2019-03-21T23:50:53.787Z,99273.14
2019-03-21T23:53:26.624Z,99275.73
2019-03-21T23:55:59.596Z,99277.95
2019-03-21T23:58:32.928Z,99278.33
